LIRN

Naples

Airport
ICAO code
LIRN
IATA Code
NAP
Summary
ICAO Region
EUR
ICAO Territory
Location

Capodichino, Campania

Serving
Naples
Elevation
294 ft
Coordinates
40° 53' 7" N , 14° 17' 19" E
KCC
Airport CFIT
Runway Visual Perspective
Metar
Observation
LIRN 010720Z 30005KT 9999 SCT030 22/20 Q1017 NOSIG
Station
Napoli / Capodichino
Date/Time
2022-10-01 07:20:00
Wind direction
300°
Wind speed
05 kts
Lowest cloud amount
scattered clouds
Temperature
22°C
Dew point
20°C
Humidity
88%
QNH
1017 hPa
Weather condition
n/a

Naples Airport is the airport serving Naples, Italy. It is located 3.2 nm north-northeast of the city in the Capodichino district of Naples.

Climatology

Dry-summer subtropical ”Mediterranean" climate (Köppen climate classification Csa) - characterized by hot, dry summers and mild winters. During the summer, subtropical high pressure cells dominate, making rainfall unlikely except for the occasional thunderstorm. In the winter, periodic storms bring rain (snow at higher elevations).

Runways

Designator Length Width Surface Rops
6/24 2628 45 ASP Yes/Yes

Airport map

Aerial View

SKYbrary Partners:

Safety knowledge contributed by: